Time;durP1;ratioP1;P1;durP2;ratioP2;P2;SDS_P1;SDS_P2;PMS_P1;PMS_P2;Temp;Humidity;BMP_temperature;BMP_pressure;BME280_temperature;BME280_humidity;BME280_pressure;Samples;Min_cycle;Max_cycle;Signal;HPM_P1;HPM_P2
2023/10/15 00:01:18;;;;;;;0.35;0.20;;;;;;;;;;4983540;28;20097;-59
2023/10/15 00:03:44;;;;;;;0.20;0.20;;;;;;;;;;4984822;28;20046;-59
2023/10/15 00:06:10;;;;;;;0.50;0.30;;;;;;;;;;4984414;28;20053;-59
2023/10/15 00:08:36;;;;;;;2.35;0.20;;;;;;;;;;4984615;28;20039;-59
2023/10/15 00:11:02;;;;;;;0.70;0.15;;;;;;;;;;4984589;28;20049;-59
2023/10/15 00:13:28;;;;;;;1.17;0.30;;;;;;;;;;4984523;28;20034;-60
2023/10/15 00:15:56;;;;;;;1.25;0.32;;;;;;;;;;4984076;28;20046;-59
2023/10/15 00:18:22;;;;;;;0.90;0.38;;;;;;;;;;4984805;28;20042;-59
2023/10/15 00:20:48;;;;;;;0.95;0.30;;;;;;;;;;4984240;28;20101;-60
2023/10/15 00:23:14;;;;;;;0.73;0.40;;;;;;;;;;4984180;28;20517;-59
2023/10/15 00:25:47;;;;;;;0.47;0.40;;;;;;;;;;4984423;28;20034;-59
2023/10/15 00:28:15;;;;;;;0.77;0.20;;;;;;;;;;4984387;28;20042;-60
2023/10/15 00:30:43;;;;;;;0.52;0.30;;;;;;;;;;4983390;28;20058;-59
2023/10/15 00:33:11;;;;;;;0.40;0.15;;;;;;;;;;4984117;28;20054;-60
2023/10/15 00:35:37;;;;;;;0.77;0.52;;;;;;;;;;4985228;28;20061;-59
2023/10/15 00:38:16;;;;;;;0.88;0.30;;;;;;;;;;4979465;28;20042;-59
2023/10/15 00:40:42;;;;;;;0.35;0.17;;;;;;;;;;4986716;28;20039;-59
2023/10/15 00:43:09;;;;;;;1.50;0.30;;;;;;;;;;4986359;28;20547;-59
2023/10/15 00:45:43;;;;;;;4.20;0.90;;;;;;;;;;4986161;28;20042;-59
2023/10/15 00:48:11;;;;;;;2.67;0.50;;;;;;;;;;4976600;28;20701;-59
2023/10/15 00:50:39;;;;;;;1.63;0.68;;;;;;;;;;4968861;28;20067;-59
2023/10/15 00:53:21;;;;;;;2.70;0.60;;;;;;;;;;4987429;28;20395;-62
2023/10/15 00:56:10;;;;;;;3.40;0.80;;;;;;;;;;4986404;28;20046;-62
2023/10/15 01:03:53;;;;;;;2.30;0.65;;;;;;;;;;4986948;28;20046;-62
2023/10/15 01:06:29;;;;;;;2.22;0.65;;;;;;;;;;4986229;28;20061;-62
2023/10/15 01:08:58;;;;;;;0.47;0.20;;;;;;;;;;4986474;28;20046;-61
2023/10/15 01:11:28;;;;;;;1.27;0.30;;;;;;;;;;4986167;28;20656;-61
2023/10/15 01:13:54;;;;;;;0.68;0.28;;;;;;;;;;4986292;28;20418;-62
2023/10/15 01:16:21;;;;;;;0.60;0.40;;;;;;;;;;4986215;28;20066;-62
2023/10/15 01:21:32;;;;;;;0.50;0.25;;;;;;;;;;4979487;28;20518;-62
2023/10/15 01:24:04;;;;;;;0.40;0.20;;;;;;;;;;4986147;28;20478;-61
2023/10/15 01:26:36;;;;;;;0.10;0.10;;;;;;;;;;4985778;28;20057;-62
2023/10/15 01:29:05;;;;;;;1.38;0.35;;;;;;;;;;4985811;28;20047;-62
2023/10/15 01:31:39;;;;;;;0.20;0.15;;;;;;;;;;4984103;28;20152;-62
2023/10/15 01:34:09;;;;;;;0.10;0.10;;;;;;;;;;4979744;28;20502;-62
2023/10/15 01:36:38;;;;;;;0.20;0.10;;;;;;;;;;4986250;28;20054;-62
2023/10/15 01:39:10;;;;;;;0.30;0.10;;;;;;;;;;4986252;28;20128;-62
2023/10/15 01:41:39;;;;;;;0.28;0.10;;;;;;;;;;4985284;28;20465;-62
2023/10/15 01:44:06;;;;;;;0.50;0.20;;;;;;;;;;4987175;28;20053;-61
2023/10/15 01:46:48;;;;;;;1.50;0.38;;;;;;;;;;4989806;28;20046;-62
2023/10/15 01:49:31;;;;;;;0.40;0.20;;;;;;;;;;4984687;28;20039;-62
2023/10/15 01:52:04;;;;;;;0.70;0.20;;;;;;;;;;4990000;28;20061;-61
2023/10/15 01:54:31;;;;;;;0.75;0.10;;;;;;;;;;4989280;28;20057;-62
2023/10/15 01:56:57;;;;;;;0.73;0.28;;;;;;;;;;4972383;28;20604;-62
2023/10/15 01:59:23;;;;;;;0.30;0.15;;;;;;;;;;4989795;28;20038;-62
2023/10/15 02:01:49;;;;;;;1.25;0.20;;;;;;;;;;4988767;28;20039;-62
2023/10/15 02:04:29;;;;;;;1.00;0.30;;;;;;;;;;4989424;28;20473;-62
2023/10/15 02:06:55;;;;;;;1.10;0.30;;;;;;;;;;4989716;28;20046;-62
2023/10/15 02:09:22;;;;;;;0.57;0.30;;;;;;;;;;4988863;28;20077;-61
2023/10/15 02:11:54;;;;;;;2.33;0.20;;;;;;;;;;4989093;28;20053;-62
2023/10/15 02:14:21;;;;;;;0.97;0.30;;;;;;;;;;4989391;28;20104;-62
2023/10/15 02:16:50;;;;;;;1.67;0.20;;;;;;;;;;4988903;28;20380;-61
2023/10/15 02:19:40;;;;;;;0.30;0.20;;;;;;;;;;4989772;28;20129;-62
2023/10/15 02:22:06;;;;;;;0.25;0.10;;;;;;;;;;4989326;28;20871;-61
2023/10/15 02:24:33;;;;;;;0.65;0.32;;;;;;;;;;4989214;28;20100;-62
2023/10/15 02:27:04;;;;;;;1.40;0.30;;;;;;;;;;4989464;28;20038;-62
2023/10/15 02:32:20;;;;;;;1.30;0.17;;;;;;;;;;4988975;28;20066;-62
2023/10/15 02:34:50;;;;;;;0.35;0.25;;;;;;;;;;4989636;28;20066;-62
2023/10/15 02:37:19;;;;;;;0.40;0.20;;;;;;;;;;4988958;28;20043;-62
2023/10/15 02:39:51;;;;;;;0.43;0.30;;;;;;;;;;4972234;28;20065;-62
2023/10/15 02:42:18;;;;;;;0.80;0.30;;;;;;;;;;4988874;28;20398;-62
2023/10/15 02:44:44;;;;;;;1.48;0.40;;;;;;;;;;4988224;28;20570;-62
2023/10/15 02:47:19;;;;;;;1.10;0.43;;;;;;;;;;4988988;28;20061;-62
2023/10/15 02:49:51;;;;;;;0.40;0.30;;;;;;;;;;4988967;28;20053;-62
2023/10/15 02:52:19;;;;;;;3.75;0.47;;;;;;;;;;4988466;28;20585;-62
2023/10/15 02:54:46;;;;;;;1.30;0.32;;;;;;;;;;4988562;28;20049;-62
2023/10/15 02:57:16;;;;;;;1.38;0.30;;;;;;;;;;4987975;28;20414;-62
2023/10/15 02:59:52;;;;;;;1.40;0.10;;;;;;;;;;4971317;28;20471;-62
2023/10/15 03:02:19;;;;;;;1.77;0.50;;;;;;;;;;4971347;28;20057;-62
2023/10/15 03:05:06;;;;;;;0.32;0.30;;;;;;;;;;4987332;28;20462;-61
2023/10/15 03:07:33;;;;;;;0.50;0.40;;;;;;;;;;4988571;28;20046;-62
2023/10/15 03:10:02;;;;;;;1.38;0.15;;;;;;;;;;4988569;28;20046;-62
2023/10/15 03:12:33;;;;;;;1.42;0.57;;;;;;;;;;4984494;28;20797;-62
2023/10/15 03:15:00;;;;;;;1.15;0.25;;;;;;;;;;4988301;28;20149;-61
2023/10/15 03:17:29;;;;;;;0.25;0.20;;;;;;;;;;4988331;28;20510;-62
2023/10/15 03:20:22;;;;;;;1.13;0.20;;;;;;;;;;4970116;28;20046;-62
2023/10/15 03:22:52;;;;;;;0.30;0.30;;;;;;;;;;4986677;28;20050;-62
2023/10/15 03:25:20;;;;;;;0.65;0.25;;;;;;;;;;4987509;28;20042;-63
2023/10/15 03:27:48;;;;;;;2.10;0.38;;;;;;;;;;4988445;28;20042;-62
2023/10/15 03:30:22;;;;;;;0.30;0.28;;;;;;;;;;4988181;28;20046;-63
2023/10/15 03:32:48;;;;;;;0.77;0.40;;;;;;;;;;4984345;28;20057;-63
2023/10/15 03:35:18;;;;;;;0.60;0.20;;;;;;;;;;4986696;28;20042;-63
2023/10/15 03:37:47;;;;;;;0.55;0.20;;;;;;;;;;4987961;28;20461;-62
2023/10/15 03:43:06;;;;;;;2.05;0.40;;;;;;;;;;4983044;28;20053;-63
2023/10/15 03:45:33;;;;;;;0.20;0.05;;;;;;;;;;4987988;28;20101;-63
2023/10/15 03:48:00;;;;;;;0.10;0.03;;;;;;;;;;4987139;28;20050;-63
2023/10/15 03:50:29;;;;;;;0.10;0.10;;;;;;;;;;4987794;28;20074;-63
2023/10/15 03:52:58;;;;;;;0.10;0.08;;;;;;;;;;4987865;28;20042;-63
2023/10/15 03:55:24;;;;;;;0.52;0.10;;;;;;;;;;4987141;28;20038;-63
2023/10/15 03:57:52;;;;;;;0.32;0.05;;;;;;;;;;4987473;28;20057;-63
2023/10/15 04:00:35;;;;;;;0.60;0.10;;;;;;;;;;4986634;28;20118;-63
2023/10/15 04:03:18;;;;;;;0.10;0.00;;;;;;;;;;4985819;28;20065;-63
2023/10/15 04:05:51;;;;;;;1.70;0.20;;;;;;;;;;4987704;28;20039;-61
2023/10/15 04:08:18;;;;;;;1.00;0.15;;;;;;;;;;4985748;28;20058;-61
2023/10/15 04:10:44;;;;;;;0.43;0.10;;;;;;;;;;4987712;28;20558;-61
2023/10/15 04:13:10;;;;;;;0.15;0.15;;;;;;;;;;4988138;28;20141;-61
2023/10/15 04:15:36;;;;;;;0.35;0.10;;;;;;;;;;4987024;28;20113;-60
2023/10/15 04:18:02;;;;;;;0.08;0.08;;;;;;;;;;4987140;28;20136;-61
2023/10/15 04:20:35;;;;;;;0.15;0.10;;;;;;;;;;4986744;28;20414;-60
2023/10/15 04:23:01;;;;;;;0.25;0.10;;;;;;;;;;4986099;28;21008;-60
2023/10/15 04:25:32;;;;;;;0.20;0.10;;;;;;;;;;4987249;28;20046;-60
2023/10/15 04:28:08;;;;;;;0.10;0.10;;;;;;;;;;4986930;28;20042;-60
2023/10/15 04:30:38;;;;;;;0.15;0.00;;;;;;;;;;4986036;28;20058;-60
2023/10/15 04:33:10;;;;;;;0.00;0.00;;;;;;;;;;4980317;28;20042;-61
2023/10/15 04:35:37;;;;;;;0.00;0.00;;;;;;;;;;4986170;28;20125;-60
2023/10/15 04:38:07;;;;;;;0.28;0.03;;;;;;;;;;4986594;28;20780;-60
2023/10/15 04:40:50;;;;;;;0.38;0.13;;;;;;;;;;4987427;28;20101;-59
2023/10/15 04:43:17;;;;;;;0.95;0.10;;;;;;;;;;4981032;28;20141;-60
2023/10/15 04:45:46;;;;;;;0.35;0.10;;;;;;;;;;4986568;28;20034;-60
2023/10/15 04:48:15;;;;;;;0.38;0.10;;;;;;;;;;4986808;28;20046;-60
2023/10/15 04:50:43;;;;;;;0.20;0.00;;;;;;;;;;4986504;28;20131;-61
2023/10/15 04:53:14;;;;;;;0.13;0.00;;;;;;;;;;4987270;28;20046;-60
2023/10/15 04:55:40;;;;;;;0.22;0.00;;;;;;;;;;4986251;28;20683;-60
2023/10/15 04:58:06;;;;;;;0.28;0.05;;;;;;;;;;4985502;28;20041;-60
2023/10/15 05:00:35;;;;;;;0.35;0.10;;;;;;;;;;4987730;28;20038;-60
2023/10/15 05:03:01;;;;;;;0.00;0.00;;;;;;;;;;4986516;28;20431;-60
2023/10/15 05:05:27;;;;;;;0.10;0.10;;;;;;;;;;4986607;28;20791;-60
2023/10/15 05:07:57;;;;;;;0.35;0.22;;;;;;;;;;4968140;28;20054;-60
2023/10/15 05:10:23;;;;;;;0.10;0.10;;;;;;;;;;4987945;28;20477;-60
2023/10/15 05:12:51;;;;;;;0.55;0.05;;;;;;;;;;4985006;28;20042;-60
2023/10/15 05:15:18;;;;;;;0.43;0.10;;;;;;;;;;4986100;28;20046;-60
2023/10/15 05:17:47;;;;;;;0.35;0.13;;;;;;;;;;4985711;28;20038;-60
2023/10/15 05:20:13;;;;;;;0.17;0.10;;;;;;;;;;4985136;28;20117;-60
2023/10/15 05:22:40;;;;;;;0.20;0.10;;;;;;;;;;4986535;28;20046;-60
2023/10/15 05:25:11;;;;;;;0.47;0.10;;;;;;;;;;4985430;28;20089;-60
2023/10/15 05:27:37;;;;;;;0.85;0.20;;;;;;;;;;4986769;28;20045;-60
2023/10/15 05:30:09;;;;;;;0.50;0.17;;;;;;;;;;4985909;28;20113;-60
2023/10/15 05:32:35;;;;;;;0.10;0.00;;;;;;;;;;4980302;28;20506;-60
2023/10/15 05:35:01;;;;;;;0.00;0.00;;;;;;;;;;4986293;28;20042;-59
2023/10/15 05:37:28;;;;;;;0.13;0.10;;;;;;;;;;4985922;28;20046;-60
2023/10/15 05:39:54;;;;;;;0.38;0.25;;;;;;;;;;4985010;28;20379;-60
2023/10/15 05:42:20;;;;;;;0.47;0.22;;;;;;;;;;4986074;28;20133;-60
2023/10/15 05:44:46;;;;;;;1.35;0.40;;;;;;;;;;4986041;28;20394;-60
2023/10/15 05:47:12;;;;;;;0.20;0.10;;;;;;;;;;4985417;28;20044;-60
2023/10/15 05:49:38;;;;;;;1.35;0.50;;;;;;;;;;4986577;28;20046;-60
2023/10/15 05:52:06;;;;;;;0.80;0.20;;;;;;;;;;4984342;28;20042;-60
2023/10/15 05:54:35;;;;;;;0.20;0.10;;;;;;;;;;4982871;28;20046;-63
2023/10/15 05:57:05;;;;;;;0.10;0.00;;;;;;;;;;4985399;28;20077;-63
2023/10/15 05:59:31;;;;;;;0.75;0.17;;;;;;;;;;4986171;28;20312;-63
2023/10/15 06:01:58;;;;;;;0.30;0.17;;;;;;;;;;4984840;28;21521;-63
2023/10/15 06:04:24;;;;;;;0.35;0.05;;;;;;;;;;4980097;28;20042;-63
2023/10/15 06:06:50;;;;;;;0.90;0.10;;;;;;;;;;4982695;28;20043;-62
2023/10/15 06:09:17;;;;;;;1.10;0.40;;;;;;;;;;4982315;28;20034;-63
2023/10/15 06:11:43;;;;;;;0.10;0.10;;;;;;;;;;4980018;28;20057;-63
2023/10/15 06:14:09;;;;;;;0.20;0.10;;;;;;;;;;4985285;28;20064;-62
2023/10/15 06:16:36;;;;;;;0.38;0.10;;;;;;;;;;4985074;28;20041;-63
2023/10/15 06:19:02;;;;;;;1.65;0.10;;;;;;;;;;4967679;28;20050;-63
2023/10/15 06:21:28;;;;;;;1.20;0.22;;;;;;;;;;4984844;28;20065;-63
2023/10/15 06:23:54;;;;;;;0.10;0.10;;;;;;;;;;4981745;28;20117;-63
2023/10/15 06:26:20;;;;;;;0.20;0.00;;;;;;;;;;4984375;28;20743;-63
2023/10/15 06:28:46;;;;;;;0.17;0.08;;;;;;;;;;4982342;28;20068;-63
2023/10/15 06:31:12;;;;;;;0.00;0.00;;;;;;;;;;4987527;28;20057;-63
2023/10/15 06:33:40;;;;;;;0.00;0.00;;;;;;;;;;4989587;28;20121;-63
2023/10/15 06:36:07;;;;;;;0.55;0.10;;;;;;;;;;4970900;28;20042;-62
2023/10/15 06:38:33;;;;;;;0.10;0.00;;;;;;;;;;4987670;28;20035;-63
2023/10/15 06:41:04;;;;;;;1.92;0.20;;;;;;;;;;4986957;28;20039;-62
2023/10/15 06:43:30;;;;;;;0.30;0.10;;;;;;;;;;4987115;28;20081;-62
2023/10/15 06:46:05;;;;;;;0.25;0.10;;;;;;;;;;4987887;28;20104;-62
2023/10/15 06:48:31;;;;;;;0.10;0.00;;;;;;;;;;4988161;28;20077;-63
2023/10/15 06:50:57;;;;;;;0.00;0.00;;;;;;;;;;4982082;28;20761;-63
2023/10/15 06:53:23;;;;;;;0.68;0.10;;;;;;;;;;4985269;28;20141;-63
2023/10/15 06:55:51;;;;;;;0.38;0.10;;;;;;;;;;4988183;28;20077;-63
2023/10/15 06:58:17;;;;;;;1.30;0.10;;;;;;;;;;4985928;28;20034;-62
2023/10/15 07:00:43;;;;;;;0.30;0.20;;;;;;;;;;4987781;28;20410;-62
2023/10/15 07:03:09;;;;;;;0.55;0.20;;;;;;;;;;4987856;28;20042;-62
2023/10/15 07:05:36;;;;;;;0.20;0.10;;;;;;;;;;4970172;28;20053;-63
2023/10/15 07:08:02;;;;;;;0.50;0.00;;;;;;;;;;4987909;28;20058;-63
2023/10/15 07:10:28;;;;;;;0.30;0.10;;;;;;;;;;4987364;28;20104;-62
2023/10/15 07:12:57;;;;;;;0.30;0.10;;;;;;;;;;4986088;28;20084;-62
2023/10/15 07:15:24;;;;;;;0.47;0.05;;;;;;;;;;4984640;28;20426;-63
2023/10/15 07:17:50;;;;;;;0.95;0.10;;;;;;;;;;4984635;28;20042;-62
2023/10/15 07:20:21;;;;;;;0.10;0.10;;;;;;;;;;4986377;28;20085;-61
2023/10/15 07:22:51;;;;;;;0.10;0.10;;;;;;;;;;4985794;28;20052;-61
2023/10/15 07:25:20;;;;;;;0.10;0.10;;;;;;;;;;4984772;28;20078;-61
2023/10/15 07:27:47;;;;;;;0.10;0.10;;;;;;;;;;4985863;28;20037;-61
2023/10/15 07:30:16;;;;;;;0.22;0.10;;;;;;;;;;4985496;28;20034;-61
2023/10/15 07:32:43;;;;;;;0.43;0.30;;;;;;;;;;4985298;28;20096;-61
2023/10/15 07:35:12;;;;;;;0.40;0.10;;;;;;;;;;4985599;28;20120;-62
2023/10/15 07:37:49;;;;;;;2.65;0.50;;;;;;;;;;4986064;28;20081;-61
2023/10/15 07:40:21;;;;;;;0.63;0.40;;;;;;;;;;4982625;28;20042;-61
2023/10/15 07:42:59;;;;;;;0.50;0.03;;;;;;;;;;4966850;28;20050;-61
2023/10/15 07:45:28;;;;;;;0.47;0.15;;;;;;;;;;4982598;28;20042;-61
2023/10/15 07:47:55;;;;;;;0.85;0.10;;;;;;;;;;4985329;28;20046;-59
2023/10/15 07:50:24;;;;;;;0.13;0.00;;;;;;;;;;4985382;28;20053;-58
2023/10/15 07:52:51;;;;;;;0.15;0.00;;;;;;;;;;4984710;28;20038;-59
2023/10/15 07:55:17;;;;;;;0.30;0.10;;;;;;;;;;4985153;28;20050;-58
2023/10/15 07:57:44;;;;;;;0.40;0.30;;;;;;;;;;4985567;28;20070;-59
2023/10/15 08:00:15;;;;;;;1.20;0.00;;;;;;;;;;4985158;28;20053;-59
2023/10/15 08:02:41;;;;;;;0.65;0.30;;;;;;;;;;4983524;28;20046;-59
2023/10/15 08:05:08;;;;;;;0.70;0.10;;;;;;;;;;4985392;28;20046;-58
2023/10/15 08:07:37;;;;;;;0.68;0.10;;;;;;;;;;4984400;28;20042;-58
2023/10/15 08:10:03;;;;;;;0.25;0.10;;;;;;;;;;4982762;28;20554;-59
2023/10/15 08:12:29;;;;;;;0.75;0.20;;;;;;;;;;4984991;28;20046;-59
2023/10/15 08:14:55;;;;;;;1.38;0.40;;;;;;;;;;4984385;28;20053;-58
2023/10/15 08:17:23;;;;;;;1.38;0.32;;;;;;;;;;4985410;28;20427;-59
2023/10/15 08:19:49;;;;;;;0.30;0.20;;;;;;;;;;4985102;28;20084;-59
2023/10/15 08:22:16;;;;;;;1.20;0.40;;;;;;;;;;4983856;28;20049;-59
2023/10/15 08:24:42;;;;;;;2.67;0.35;;;;;;;;;;4985446;28;20106;-60
2023/10/15 08:27:08;;;;;;;0.65;0.30;;;;;;;;;;4976105;28;20057;-59
2023/10/15 08:29:34;;;;;;;1.42;0.60;;;;;;;;;;4978323;28;20336;-58
2023/10/15 08:32:01;;;;;;;1.02;0.32;;;;;;;;;;4980838;28;20251;-58
2023/10/15 08:34:28;;;;;;;2.47;0.30;;;;;;;;;;4983538;28;20048;-59
2023/10/15 08:36:54;;;;;;;0.20;0.20;;;;;;;;;;4981356;28;20038;-58
2023/10/15 08:39:23;;;;;;;1.13;0.38;;;;;;;;;;4977084;28;20047;-59
2023/10/15 08:41:54;;;;;;;1.40;0.40;;;;;;;;;;4978525;28;20125;-59
2023/10/15 08:44:20;;;;;;;1.80;0.30;;;;;;;;;;4975658;28;20050;-60
2023/10/15 08:46:49;;;;;;;0.32;0.10;;;;;;;;;;4977404;28;20053;-57
2023/10/15 08:49:15;;;;;;;0.17;0.17;;;;;;;;;;4974407;28;20045;-64
2023/10/15 08:51:42;;;;;;;0.10;0.10;;;;;;;;;;4962135;28;20129;-60
2023/10/15 08:54:11;;;;;;;1.80;0.13;;;;;;;;;;4979160;28;20050;-61
2023/10/15 08:56:37;;;;;;;0.17;0.10;;;;;;;;;;4962921;28;20075;-60
2023/10/15 08:59:04;;;;;;;0.15;0.10;;;;;;;;;;4979635;28;20624;-60
2023/10/15 09:01:34;;;;;;;1.00;0.20;;;;;;;;;;4982762;28;20054;-61
2023/10/15 09:04:00;;;;;;;0.10;0.10;;;;;;;;;;4977527;28;21102;-60
2023/10/15 09:06:27;;;;;;;1.50;0.30;;;;;;;;;;4981065;28;20418;-60
2023/10/15 09:08:53;;;;;;;0.63;0.30;;;;;;;;;;4977330;28;20415;-61
2023/10/15 09:11:19;;;;;;;1.77;0.35;;;;;;;;;;4975260;28;20081;-61
2023/10/15 09:13:52;;;;;;;1.45;0.20;;;;;;;;;;4981624;28;20390;-61
2023/10/15 09:16:20;;;;;;;0.40;0.10;;;;;;;;;;4961490;28;20050;-61
2023/10/15 09:18:46;;;;;;;0.70;0.20;;;;;;;;;;4974784;28;20077;-60
2023/10/15 09:21:23;;;;;;;0.75;0.28;;;;;;;;;;4979505;28;20042;-61
2023/10/15 09:23:50;;;;;;;0.13;0.10;;;;;;;;;;4978206;28;20114;-61
2023/10/15 09:26:16;;;;;;;0.10;0.10;;;;;;;;;;4981457;28;20048;-60
2023/10/15 09:28:42;;;;;;;0.10;0.10;;;;;;;;;;4980801;28;20053;-60
2023/10/15 09:31:09;;;;;;;0.38;0.15;;;;;;;;;;4981023;28;20352;-59
2023/10/15 09:33:36;;;;;;;0.10;0.00;;;;;;;;;;4975742;28;20050;-60
2023/10/15 09:36:02;;;;;;;0.00;0.00;;;;;;;;;;4979625;28;20125;-59
2023/10/15 09:38:31;;;;;;;0.52;0.00;;;;;;;;;;4970994;28;20039;-59
2023/10/15 09:40:58;;;;;;;0.20;0.20;;;;;;;;;;4973875;28;20098;-60
2023/10/15 09:43:25;;;;;;;0.32;0.20;;;;;;;;;;4979401;28;20073;-60
2023/10/15 09:45:54;;;;;;;0.73;0.52;;;;;;;;;;4972636;28;20100;-59
2023/10/15 09:48:27;;;;;;;0.43;0.43;;;;;;;;;;4976724;28;20057;-59
2023/10/15 09:50:57;;;;;;;0.10;0.10;;;;;;;;;;4976267;28;20495;-60
2023/10/15 09:53:24;;;;;;;0.47;0.30;;;;;;;;;;4977004;28;20569;-60
2023/10/15 09:55:51;;;;;;;0.63;0.43;;;;;;;;;;4977503;28;20107;-60
2023/10/15 09:58:18;;;;;;;1.48;0.52;;;;;;;;;;4971494;28;20070;-60
2023/10/15 10:00:46;;;;;;;1.83;0.60;;;;;;;;;;4975192;28;20042;-60
2023/10/15 10:03:26;;;;;;;6.38;0.95;;;;;;;;;;4971225;28;20490;-62
2023/10/15 10:06:09;;;;;;;2.28;0.68;;;;;;;;;;4976870;28;20034;-62
2023/10/15 10:08:54;;;;;;;0.90;0.50;;;;;;;;;;4965968;28;20528;-61
2023/10/15 10:11:29;;;;;;;1.00;0.60;;;;;;;;;;4979572;28;20053;-61
2023/10/15 10:14:33;;;;;;;1.30;0.40;;;;;;;;;;4982160;28;20087;-61
2023/10/15 10:17:00;;;;;;;0.38;0.20;;;;;;;;;;4888007;29;20048;-62
2023/10/15 10:19:29;;;;;;;0.20;0.20;;;;;;;;;;4880223;29;20109;-61
2023/10/15 10:21:55;;;;;;;0.70;0.20;;;;;;;;;;4931110;28;20051;-62
2023/10/15 10:24:23;;;;;;;1.45;0.13;;;;;;;;;;4983391;28;20517;-61
2023/10/15 10:26:56;;;;;;;0.20;0.20;;;;;;;;;;4980187;28;20429;-62
2023/10/15 10:29:27;;;;;;;0.20;0.20;;;;;;;;;;4984389;28;20104;-62
2023/10/15 10:31:56;;;;;;;2.45;0.20;;;;;;;;;;4982848;28;20053;-62
2023/10/15 10:34:32;;;;;;;0.52;0.20;;;;;;;;;;4983082;28;20802;-61
2023/10/15 10:36:59;;;;;;;1.95;0.25;;;;;;;;;;4984434;28;20034;-61
2023/10/15 10:39:26;;;;;;;0.68;0.25;;;;;;;;;;4986371;28;20030;-61
2023/10/15 10:41:58;;;;;;;0.68;0.28;;;;;;;;;;4986902;28;20049;-61
2023/10/15 10:44:24;;;;;;;1.23;0.20;;;;;;;;;;4985977;28;20038;-61
2023/10/15 10:46:54;;;;;;;0.55;0.15;;;;;;;;;;4987233;28;20112;-61
2023/10/15 10:49:38;;;;;;;5.35;0.98;;;;;;;;;;4982855;28;20050;-61
2023/10/15 10:52:14;;;;;;;2.47;0.43;;;;;;;;;;4985184;28;20073;-60
2023/10/15 10:54:40;;;;;;;1.27;0.40;;;;;;;;;;4986508;28;20093;-61
2023/10/15 10:57:10;;;;;;;0.10;0.10;;;;;;;;;;4984607;28;20042;-61
2023/10/15 10:59:41;;;;;;;0.30;0.08;;;;;;;;;;4986326;28;20038;-62
2023/10/15 11:02:11;;;;;;;0.08;0.00;;;;;;;;;;4987031;28;20166;-61
2023/10/15 11:04:38;;;;;;;0.30;0.30;;;;;;;;;;4985377;28;20046;-61
2023/10/15 11:07:04;;;;;;;0.13;0.10;;;;;;;;;;4986291;28;20324;-60
2023/10/15 11:09:30;;;;;;;2.65;0.25;;;;;;;;;;4985435;28;20074;-61
2023/10/15 11:11:57;;;;;;;1.10;0.50;;;;;;;;;;4986046;28;20049;-60
2023/10/15 11:14:24;;;;;;;0.82;0.30;;;;;;;;;;4986806;28;20103;-60
2023/10/15 11:16:50;;;;;;;1.90;0.50;;;;;;;;;;4983049;28;20050;-59
2023/10/15 11:19:16;;;;;;;0.35;0.10;;;;;;;;;;4985305;28;20038;-60
2023/10/15 11:21:42;;;;;;;0.77;0.30;;;;;;;;;;4986558;28;20061;-60
2023/10/15 11:24:12;;;;;;;0.28;0.10;;;;;;;;;;4982646;28;20521;-61
2023/10/15 11:26:41;;;;;;;1.02;0.32;;;;;;;;;;4984204;28;20430;-57
2023/10/15 11:29:08;;;;;;;3.80;0.85;;;;;;;;;;4985182;28;20163;-61
2023/10/15 11:31:34;;;;;;;0.95;0.40;;;;;;;;;;4983694;28;20089;-60
2023/10/15 11:34:01;;;;;;;1.08;0.30;;;;;;;;;;4985870;28;20050;-61
2023/10/15 11:36:28;;;;;;;0.28;0.10;;;;;;;;;;4984316;28;20046;-60
2023/10/15 11:38:54;;;;;;;0.32;0.15;;;;;;;;;;4984936;28;20043;-61
2023/10/15 11:41:21;;;;;;;1.05;0.20;;;;;;;;;;4968124;28;20178;-60
2023/10/15 11:43:49;;;;;;;0.17;0.10;;;;;;;;;;4985650;28;20049;-60
2023/10/15 11:46:19;;;;;;;0.10;0.10;;;;;;;;;;4985004;28;20038;-61
2023/10/15 11:48:45;;;;;;;0.20;0.20;;;;;;;;;;4978143;28;20570;-61
2023/10/15 11:51:11;;;;;;;0.55;0.20;;;;;;;;;;4986968;28;20053;-61
2023/10/15 11:53:41;;;;;;;0.17;0.10;;;;;;;;;;4985796;28;20038;-62
2023/10/15 11:56:16;;;;;;;0.10;0.00;;;;;;;;;;4986314;28;20047;-62
2023/10/15 11:58:45;;;;;;;0.88;0.40;;;;;;;;;;4987199;28;20042;-62
2023/10/15 12:01:14;;;;;;;0.45;0.20;;;;;;;;;;4987299;28;20129;-61
2023/10/15 12:03:41;;;;;;;0.30;0.20;;;;;;;;;;4987540;28;20054;-60
2023/10/15 12:06:07;;;;;;;0.65;0.30;;;;;;;;;;4986409;28;20042;-61
2023/10/15 12:08:33;;;;;;;0.70;0.30;;;;;;;;;;4986951;28;20461;-61
2023/10/15 12:11:00;;;;;;;0.30;0.20;;;;;;;;;;4986745;28;20510;-61
2023/10/15 12:13:26;;;;;;;1.67;0.30;;;;;;;;;;4985984;28;20608;-60
2023/10/15 12:15:53;;;;;;;2.22;0.50;;;;;;;;;;4986143;28;20622;-61
2023/10/15 12:18:19;;;;;;;2.47;0.57;;;;;;;;;;4986980;28;20053;-61
2023/10/15 12:20:45;;;;;;;0.55;0.35;;;;;;;;;;4986745;28;20046;-61
2023/10/15 12:23:11;;;;;;;0.75;0.52;;;;;;;;;;4986996;28;20046;-60
2023/10/15 12:25:38;;;;;;;0.80;0.38;;;;;;;;;;4986797;28;20396;-61
2023/10/15 12:28:08;;;;;;;1.23;0.40;;;;;;;;;;4984758;28;20050;-58
2023/10/15 12:30:34;;;;;;;0.70;0.30;;;;;;;;;;4986248;28;20062;-61
2023/10/15 12:33:00;;;;;;;1.10;0.45;;;;;;;;;;4984116;28;20129;-60
2023/10/15 12:35:29;;;;;;;0.57;0.35;;;;;;;;;;4986132;28;20082;-60
2023/10/15 12:38:01;;;;;;;1.58;0.20;;;;;;;;;;4985354;28;20043;-61
2023/10/15 12:40:32;;;;;;;0.93;0.20;;;;;;;;;;4986357;28;20050;-60
2023/10/15 12:43:01;;;;;;;0.30;0.15;;;;;;;;;;4985631;28;20047;-60
2023/10/15 12:45:28;;;;;;;1.55;0.30;;;;;;;;;;4984131;28;20181;-60
2023/10/15 12:47:58;;;;;;;1.35;0.60;;;;;;;;;;4985271;28;20117;-60
2023/10/15 12:50:24;;;;;;;1.00;0.20;;;;;;;;;;4968627;28;20402;-61
2023/10/15 12:52:52;;;;;;;0.20;0.20;;;;;;;;;;4986079;28;20050;-60
2023/10/15 12:55:19;;;;;;;0.30;0.20;;;;;;;;;;4985430;28;20050;-60
2023/10/15 12:57:48;;;;;;;0.43;0.25;;;;;;;;;;4986405;28;20049;-60
2023/10/15 13:00:17;;;;;;;0.85;0.20;;;;;;;;;;4986820;28;20046;-61
2023/10/15 13:02:44;;;;;;;1.55;0.50;;;;;;;;;;4985889;28;20094;-60
2023/10/15 13:05:13;;;;;;;1.45;0.50;;;;;;;;;;4985765;28;20050;-61
2023/10/15 13:07:39;;;;;;;2.58;0.70;;;;;;;;;;4984684;28;20043;-60
2023/10/15 13:10:07;;;;;;;0.43;0.20;;;;;;;;;;4984040;28;20685;-61
2023/10/15 13:12:33;;;;;;;0.32;0.20;;;;;;;;;;4985685;28;20499;-61
2023/10/15 13:14:59;;;;;;;0.80;0.30;;;;;;;;;;4985265;28;20045;-61
2023/10/15 13:17:25;;;;;;;1.80;0.77;;;;;;;;;;4984592;28;20081;-60
2023/10/15 13:19:51;;;;;;;1.95;0.75;;;;;;;;;;4985679;28;20039;-60
2023/10/15 13:22:20;;;;;;;1.08;0.50;;;;;;;;;;4985970;28;20482;-60
2023/10/15 13:24:46;;;;;;;1.35;0.50;;;;;;;;;;4984927;28;20143;-59
2023/10/15 13:27:12;;;;;;;2.88;0.50;;;;;;;;;;4985910;28;20046;-60
2023/10/15 13:29:38;;;;;;;0.70;0.30;;;;;;;;;;4985683;28;20112;-60
2023/10/15 13:32:05;;;;;;;0.45;0.25;;;;;;;;;;4984781;28;20109;-61
2023/10/15 13:34:31;;;;;;;0.20;0.13;;;;;;;;;;4985607;28;20294;-60
2023/10/15 13:36:57;;;;;;;1.58;0.43;;;;;;;;;;4984567;28;20038;-60
2023/10/15 13:39:28;;;;;;;1.35;0.32;;;;;;;;;;4978807;28;20108;-61
2023/10/15 13:41:54;;;;;;;3.58;0.70;;;;;;;;;;4972560;28;20049;-60
2023/10/15 13:44:20;;;;;;;1.67;0.60;;;;;;;;;;4979273;28;20042;-59
2023/10/15 13:46:47;;;;;;;1.05;0.60;;;;;;;;;;4972531;28;20506;-60
2023/10/15 13:49:13;;;;;;;3.90;0.60;;;;;;;;;;4976163;28;20502;-60
2023/10/15 13:51:42;;;;;;;0.30;0.30;;;;;;;;;;4971165;28;20491;-60
2023/10/15 13:54:08;;;;;;;1.00;0.50;;;;;;;;;;4974406;28;20113;-59
2023/10/15 13:56:34;;;;;;;0.70;0.40;;;;;;;;;;4979098;28;20550;-59
2023/10/15 13:59:00;;;;;;;0.32;0.20;;;;;;;;;;4975449;28;20047;-59
2023/10/15 14:01:26;;;;;;;0.80;0.40;;;;;;;;;;4976812;28;20661;-59
2023/10/15 14:03:54;;;;;;;1.08;0.40;;;;;;;;;;4977689;28;20049;-60
2023/10/15 14:06:20;;;;;;;1.77;0.40;;;;;;;;;;4958232;28;20038;-60
2023/10/15 14:08:46;;;;;;;0.47;0.10;;;;;;;;;;4977738;28;20038;-59
2023/10/15 14:11:12;;;;;;;0.80;0.30;;;;;;;;;;4979791;28;20522;-59
2023/10/15 14:13:38;;;;;;;0.50;0.28;;;;;;;;;;4972480;28;20064;-58
2023/10/15 14:16:04;;;;;;;0.40;0.30;;;;;;;;;;4979284;28;20061;-57
2023/10/15 14:18:30;;;;;;;0.20;0.20;;;;;;;;;;4979418;28;20047;-57
2023/10/15 14:20:56;;;;;;;0.47;0.30;;;;;;;;;;4978720;28;20038;-57
2023/10/15 14:23:23;;;;;;;0.75;0.15;;;;;;;;;;4984161;28;20335;-57
2023/10/15 14:25:50;;;;;;;1.67;0.57;;;;;;;;;;4965241;28;20130;-58
2023/10/15 14:28:16;;;;;;;1.17;0.40;;;;;;;;;;4982845;28;20121;-58
2023/10/15 14:30:42;;;;;;;1.50;0.60;;;;;;;;;;4986982;28;20129;-57
2023/10/15 14:33:08;;;;;;;0.82;0.20;;;;;;;;;;4973391;28;20133;-58
2023/10/15 14:35:34;;;;;;;1.60;0.43;;;;;;;;;;4978450;28;20034;-58
2023/10/15 14:38:02;;;;;;;3.45;0.70;;;;;;;;;;4978932;28;20049;-59
2023/10/15 14:40:28;;;;;;;1.20;0.55;;;;;;;;;;4979653;28;20050;-58
2023/10/15 14:42:54;;;;;;;0.50;0.40;;;;;;;;;;4979016;28;20068;-58
2023/10/15 14:45:21;;;;;;;1.48;0.55;;;;;;;;;;4978749;28;20419;-58
2023/10/15 14:47:47;;;;;;;1.98;0.40;;;;;;;;;;4963270;28;20030;-57
2023/10/15 14:50:13;;;;;;;2.13;0.88;;;;;;;;;;4976061;28;20042;-57
2023/10/15 14:52:42;;;;;;;0.47;0.30;;;;;;;;;;4981956;28;20042;-58
2023/10/15 14:55:08;;;;;;;0.38;0.22;;;;;;;;;;4984161;28;20542;-58
2023/10/15 14:57:34;;;;;;;0.57;0.40;;;;;;;;;;4986464;28;20087;-58
2023/10/15 15:00:04;;;;;;;0.90;0.50;;;;;;;;;;4975425;28;20042;-57
2023/10/15 15:02:30;;;;;;;0.95;0.50;;;;;;;;;;4982731;28;20035;-57
2023/10/15 15:04:56;;;;;;;0.75;0.35;;;;;;;;;;4981296;28;20461;-57